Alt de Fairview, Puerto Rico
Current Conditions -  °F | °C
As of 7:56 AM on Sunday 21 Dec 2014 (Local Time) from TJSJ Reporting Station
Scattered Clouds Scattered Clouds  
Wind Chill: 24°   Ceiling: Unl
Heat Index: 24°   Visibility: 10mi
Dew Point: 21°   Wind: 5mph
Humidity: 82%   Direction: 130°SE
Pressure: 30.06"   Gusts: NA
Location:  18.3569°N, 66.0247°W
Report Text: TJSJ 211156Z 13004KT 10SM SCT033 24/21 A3006 RMK AO2 SLP179 T02440211 10256 20233 53018
Loading
Personal Weather Stations






























Interactive Weather Map New forecast layout! Learn more

10-Day Weather Forecast

Advertisements
Track Severe Weather on mobile